Time;durP1;ratioP1;P1;durP2;ratioP2;P2;SDS_P1;SDS_P2;PMS_P1;PMS_P2;Temp;Humidity;BMP_temperature;BMP_pressure;BME280_temperature;BME280_humidity;BME280_pressure;Samples;Min_cycle;Max_cycle;Signal;HPM_P1;HPM_P2
2021/03/11 00:02:25;;;;;;;19.25;14.10;;;;;;;;;;4915729;29;20040;-84
2021/03/11 00:05:45;;;;;;;21.30;13.85;;;;;;;;;;4885157;29;20110;-83
2021/03/11 00:08:18;;;;;;;17.98;12.88;;;;;;;;;;4909898;29;20055;-83
2021/03/11 00:10:48;;;;;;;23.02;13.38;;;;;;;;;;4912629;29;20053;-84
2021/03/11 00:13:57;;;;;;;18.13;13.38;;;;;;;;;;4900631;29;20049;-82
2021/03/11 00:16:53;;;;;;;16.42;12.30;;;;;;;;;;4917195;29;20049;-85
2021/03/11 00:20:36;;;;;;;19.08;12.93;;;;;;;;;;4893920;29;20053;-84
2021/03/11 00:23:26;;;;;;;18.35;12.30;;;;;;;;;;4909134;29;20021;-85
2021/03/11 00:26:06;;;;;;;17.33;12.70;;;;;;;;;;4921392;29;20049;-85
2021/03/11 00:32:08;;;;;;;16.77;12.35;;;;;;;;;;4986371;28;20050;-85
2021/03/11 00:35:06;;;;;;;15.65;11.73;;;;;;;;;;4993431;28;20090;-84
2021/03/11 00:38:09;;;;;;;15.77;11.52;;;;;;;;;;5009099;28;20035;-84
2021/03/11 00:41:13;;;;;;;20.10;12.05;;;;;;;;;;4952632;28;20042;-84
2021/03/11 00:44:06;;;;;;;16.55;11.57;;;;;;;;;;5005203;28;20049;-84
2021/03/11 00:47:12;;;;;;;15.13;11.80;;;;;;;;;;4991801;28;20038;-83
2021/03/11 00:50:42;;;;;;;16.50;12.27;;;;;;;;;;4990312;28;20010;-84
2021/03/11 00:53:42;;;;;;;17.35;12.02;;;;;;;;;;5017090;28;20038;-84
2021/03/11 00:57:00;;;;;;;15.90;11.68;;;;;;;;;;5015821;28;20033;-85
2021/03/11 01:06:24;;;;;;;16.42;11.43;;;;;;;;;;4963983;28;20082;-84
2021/03/11 01:09:43;;;;;;;16.95;11.55;;;;;;;;;;4947128;29;20103;-85
2021/03/11 01:12:13;;;;;;;;;;;;;;;;;;4956842;29;20019;-85
2021/03/11 01:15:19;;;;;;;14.98;11.05;;;;;;;;;;4957209;29;19917;-84
2021/03/11 01:21:00;;;;;;;17.08;12.77;;;;;;;;;;4957957;29;20099;-84
2021/03/11 01:23:52;;;;;;;16.02;11.70;;;;;;;;;;4938620;29;20047;-83
2021/03/11 01:27:29;;;;;;;17.15;11.50;;;;;;;;;;4920087;29;20048;-84
2021/03/11 01:30:25;;;;;;;16.60;11.65;;;;;;;;;;4921226;29;20024;-84
2021/03/11 01:37:06;;;;;;;15.68;11.95;;;;;;;;;;4930355;29;20108;-85
2021/03/11 01:40:37;;;;;;;15.18;12.10;;;;;;;;;;4908129;29;20521;-84
2021/03/11 01:43:20;;;;;;;14.23;10.88;;;;;;;;;;4919103;29;20044;-83
2021/03/11 01:49:46;;;;;;;15.52;11.60;;;;;;;;;;4997503;28;20037;-84
2021/03/11 01:53:12;;;;;;;16.52;12.05;;;;;;;;;;4999194;28;20050;-85
2021/03/11 01:56:18;;;;;;;15.98;11.75;;;;;;;;;;4957672;29;20517;-84
2021/03/11 01:59:40;;;;;;;15.27;11.50;;;;;;;;;;4920813;29;20032;-85
2021/03/11 02:02:36;;;;;;;15.40;11.32;;;;;;;;;;4865065;29;20037;-84
2021/03/11 02:05:58;;;;;;;18.13;11.50;;;;;;;;;;4864344;29;20098;-84
2021/03/11 02:08:57;;;;;;;15.23;11.52;;;;;;;;;;4845524;29;20045;-85
2021/03/11 02:15:47;;;;;;;16.15;11.40;;;;;;;;;;4856068;29;20146;-85
2021/03/11 02:19:20;;;;;;;15.98;11.93;;;;;;;;;;4843899;29;20025;-84
2021/03/11 02:22:23;;;;;;;17.88;12.43;;;;;;;;;;4861673;29;20110;-85
2021/03/11 02:25:42;;;;;;;17.60;12.25;;;;;;;;;;4861915;29;20109;-84
2021/03/11 02:29:15;;;;;;;16.02;11.38;;;;;;;;;;4838061;29;20018;-84
2021/03/11 02:36:26;;;;;;;18.35;11.60;;;;;;;;;;4878461;29;20197;-85
2021/03/11 02:42:48;;;;;;;18.42;11.93;;;;;;;;;;4874080;29;20032;-86
2021/03/11 02:45:54;;;;;;;17.25;12.30;;;;;;;;;;4915569;28;20039;-84
2021/03/11 02:48:27;;;;;;;14.68;11.45;;;;;;;;;;4994931;28;20062;-83
2021/03/11 02:52:02;;;;;;;17.05;11.95;;;;;;;;;;4988374;28;20101;-85
2021/03/11 02:55:28;;;;;;;16.33;12.45;;;;;;;;;;5013839;28;20037;-86
2021/03/11 03:05:57;;;;;;;15.88;11.52;;;;;;;;;;4959433;29;20035;-85
2021/03/11 03:09:33;;;;;;;18.38;11.73;;;;;;;;;;4938791;29;20035;-84
2021/03/11 03:18:19;;;;;;;15.55;11.50;;;;;;;;;;5099184;23;20057;-85
2021/03/11 03:21:45;;;;;;;21.17;12.82;;;;;;;;;;5050110;28;20005;-85
2021/03/11 03:25:06;;;;;;;16.83;11.20;;;;;;;;;;5005962;28;20022;-86
2021/03/11 03:31:34;;;;;;;13.18;9.75;;;;;;;;;;4918392;29;20060;-84
2021/03/11 03:34:17;;;;;;;14.60;11.02;;;;;;;;;;4918728;29;20108;-84
2021/03/11 03:37:16;;;;;;;16.25;10.98;;;;;;;;;;4918851;29;20037;-85
2021/03/11 03:40:10;;;;;;;15.23;10.55;;;;;;;;;;4889097;29;20029;-86
2021/03/11 03:43:03;;;;;;;14.73;10.75;;;;;;;;;;4890174;29;20134;-85
2021/03/11 03:46:39;;;;;;;13.68;9.77;;;;;;;;;;4916932;29;20044;-86
2021/03/11 03:56:50;;;;;;;14.73;10.35;;;;;;;;;;4920251;29;20108;-85
2021/03/11 04:00:14;;;;;;;13.50;10.07;;;;;;;;;;4919106;29;20040;-84
2021/03/11 04:03:12;;;;;;;14.95;10.43;;;;;;;;;;4916604;29;20098;-84
2021/03/11 04:06:29;;;;;;;14.35;10.38;;;;;;;;;;4948197;29;20039;-84
2021/03/11 04:09:42;;;;;;;14.63;10.05;;;;;;;;;;5402855;22;20062;-84
2021/03/11 04:13:17;;;;;;;14.45;9.80;;;;;;;;;;5068963;28;20058;-85
2021/03/11 04:20:06;;;;;;;14.27;9.63;;;;;;;;;;5057085;28;20037;-84
2021/03/11 04:33:20;;;;;;;11.45;8.90;;;;;;;;;;4978325;28;20433;-84
2021/03/11 04:36:14;;;;;;;11.77;9.05;;;;;;;;;;4941042;29;20027;-84
2021/03/11 04:39:45;;;;;;;13.90;8.55;;;;;;;;;;4907863;29;20041;-84
2021/03/11 04:42:27;;;;;;;11.82;8.63;;;;;;;;;;4938285;29;20089;-83
2021/03/11 04:45:31;;;;;;;11.93;8.25;;;;;;;;;;4923480;29;20091;-85
2021/03/11 04:49:06;;;;;;;12.05;8.48;;;;;;;;;;4925031;29;20028;-84
2021/03/11 04:52:20;;;;;;;10.60;8.10;;;;;;;;;;4940733;29;20040;-86
2021/03/11 04:55:43;;;;;;;9.43;7.82;;;;;;;;;;4935888;29;20039;-84
2021/03/11 04:58:57;;;;;;;10.45;6.88;;;;;;;;;;4883679;29;20041;-84
2021/03/11 05:02:43;;;;;;;9.68;7.00;;;;;;;;;;4865981;29;20044;-86
2021/03/11 05:05:36;;;;;;;9.30;7.00;;;;;;;;;;4834303;29;20029;-85
2021/03/11 05:18:26;;;;;;;8.88;7.03;;;;;;;;;;5043752;28;20049;-84
2021/03/11 05:24:51;;;;;;;10.50;7.03;;;;;;;;;;5034082;28;20017;-84
2021/03/11 05:30:35;;;;;;;9.30;6.82;;;;;;;;;;5022453;28;20303;-84
2021/03/11 05:33:14;;;;;;;9.30;6.55;;;;;;;;;;5041731;28;20033;-84
2021/03/11 05:35:39;;;;;;;8.05;6.00;;;;;;;;;;5026158;28;20029;-83
2021/03/11 05:38:05;;;;;;;9.07;6.43;;;;;;;;;;5024620;28;20549;-83
2021/03/11 05:40:37;;;;;;;8.68;6.35;;;;;;;;;;5008121;28;20514;-84
2021/03/11 05:43:04;;;;;;;7.97;6.15;;;;;;;;;;5042843;28;20053;-83
2021/03/11 05:45:31;;;;;;;7.13;5.75;;;;;;;;;;5044560;28;20025;-83
2021/03/11 05:47:58;;;;;;;7.38;5.93;;;;;;;;;;5026594;28;20115;-83
2021/03/11 05:50:23;;;;;;;8.60;5.97;;;;;;;;;;5026319;28;20121;-84
2021/03/11 05:52:53;;;;;;;7.45;5.80;;;;;;;;;;5011739;28;20057;-84
2021/03/11 05:55:28;;;;;;;8.55;6.15;;;;;;;;;;5033542;28;20095;-83
2021/03/11 05:58:00;;;;;;;9.07;5.65;;;;;;;;;;5036498;28;20059;-82
2021/03/11 06:00:47;;;;;;;9.63;6.95;;;;;;;;;;5032744;28;20028;-83
2021/03/11 06:03:16;;;;;;;8.45;6.20;;;;;;;;;;5029905;28;20021;-84
2021/03/11 06:05:44;;;;;;;8.48;6.13;;;;;;;;;;5044513;28;20076;-84
2021/03/11 06:08:10;;;;;;;9.98;6.00;;;;;;;;;;4991508;28;20456;-83
2021/03/11 06:10:41;;;;;;;8.85;5.97;;;;;;;;;;5030703;28;20048;-82
2021/03/11 06:13:10;;;;;;;7.68;5.70;;;;;;;;;;5033894;28;20037;-84
2021/03/11 06:16:01;;;;;;;10.48;6.38;;;;;;;;;;5046513;28;20119;-84
2021/03/11 06:18:38;;;;;;;9.52;5.82;;;;;;;;;;5047127;28;20037;-83
2021/03/11 06:21:31;;;;;;;7.15;5.20;;;;;;;;;;5056358;28;20029;-83
2021/03/11 06:24:15;;;;;;;7.55;5.72;;;;;;;;;;5020721;28;20025;-84
2021/03/11 06:26:46;;;;;;;7.93;5.82;;;;;;;;;;5035131;28;20017;-83
2021/03/11 06:29:17;;;;;;;8.35;5.70;;;;;;;;;;5042452;28;20032;-83
2021/03/11 06:31:46;;;;;;;6.68;5.30;;;;;;;;;;5017221;28;20061;-83
2021/03/11 06:34:59;;;;;;;7.85;5.85;;;;;;;;;;5017579;28;20040;-85
2021/03/11 06:37:53;;;;;;;6.75;5.88;;;;;;;;;;5026126;28;20009;-84
2021/03/11 06:40:24;;;;;;;7.93;5.70;;;;;;;;;;5050420;28;20041;-82
2021/03/11 06:45:25;;;;;;;8.30;5.47;;;;;;;;;;5622119;22;20033;-82
2021/03/11 06:47:52;;;;;;;10.95;5.50;;;;;;;;;;5027200;28;20053;-84
2021/03/11 06:50:23;;;;;;;8.50;5.35;;;;;;;;;;5055484;28;20069;-83
2021/03/11 06:53:08;;;;;;;7.55;4.80;;;;;;;;;;5024168;28;20041;-82
2021/03/11 06:55:35;;;;;;;7.00;5.03;;;;;;;;;;5040102;28;20036;-83
2021/03/11 06:58:19;;;;;;;6.90;4.80;;;;;;;;;;5038440;28;20040;-84
2021/03/11 07:00:49;;;;;;;6.28;4.43;;;;;;;;;;5045299;28;20036;-82
2021/03/11 07:03:21;;;;;;;6.30;4.38;;;;;;;;;;5037898;28;20014;-83
2021/03/11 07:06:01;;;;;;;7.30;5.07;;;;;;;;;;5039796;28;20025;-83
2021/03/11 07:08:31;;;;;;;5.60;4.22;;;;;;;;;;5052641;28;20049;-82
2021/03/11 07:11:12;;;;;;;5.72;4.53;;;;;;;;;;5037535;28;20033;-82
2021/03/11 07:13:47;;;;;;;7.88;4.80;;;;;;;;;;5022818;28;20017;-82
2021/03/11 07:16:29;;;;;;;7.28;4.35;;;;;;;;;;5009161;28;20021;-83
2021/03/11 07:19:20;;;;;;;5.97;4.00;;;;;;;;;;5003962;28;20018;-83
2021/03/11 07:21:53;;;;;;;;;;;;;;;;;;5036797;28;20028;-84
2021/03/11 07:24:33;;;;;;;6.25;4.18;;;;;;;;;;5018765;28;19893;-83
2021/03/11 07:27:00;;;;;;;7.15;4.50;;;;;;;;;;5009855;28;20503;-83
2021/03/11 07:29:27;;;;;;;5.75;4.28;;;;;;;;;;5023803;28;20033;-83
2021/03/11 07:31:59;;;;;;;6.15;4.05;;;;;;;;;;5011042;28;20056;-84
2021/03/11 07:34:29;;;;;;;8.68;4.57;;;;;;;;;;5020059;28;20049;-84
2021/03/11 07:36:58;;;;;;;6.05;4.22;;;;;;;;;;5010472;28;20029;-83
2021/03/11 07:39:43;;;;;;;8.10;4.88;;;;;;;;;;5025490;28;20029;-83
2021/03/11 07:42:11;;;;;;;6.95;4.50;;;;;;;;;;5008022;28;20109;-83
2021/03/11 07:44:39;;;;;;;8.73;4.32;;;;;;;;;;5045031;28;20111;-84
2021/03/11 07:47:06;;;;;;;5.32;3.78;;;;;;;;;;5024728;28;20053;-83
2021/03/11 07:49:50;;;;;;;5.68;3.47;;;;;;;;;;5035647;28;20033;-83
2021/03/11 07:52:16;;;;;;;5.32;3.72;;;;;;;;;;5040947;28;20049;-83
2021/03/11 07:54:41;;;;;;;7.50;4.10;;;;;;;;;;5006585;28;20029;-82
2021/03/11 07:57:08;;;;;;;6.53;3.85;;;;;;;;;;5023998;28;20025;-83
2021/03/11 07:59:35;;;;;;;3.85;3.40;;;;;;;;;;5009089;28;20025;-83
2021/03/11 08:02:09;;;;;;;5.28;3.60;;;;;;;;;;5026013;28;20017;-83
2021/03/11 08:04:36;;;;;;;4.72;3.42;;;;;;;;;;5022553;28;20025;-83
2021/03/11 08:07:33;;;;;;;6.88;3.85;;;;;;;;;;4995558;28;20059;-85
2021/03/11 08:09:58;;;;;;;8.43;3.30;;;;;;;;;;5012086;28;20041;-83
2021/03/11 08:12:30;;;;;;;3.90;3.50;;;;;;;;;;5011681;28;20041;-84
2021/03/11 08:15:02;;;;;;;5.38;4.20;;;;;;;;;;5011247;28;20525;-83
2021/03/11 08:17:58;;;;;;;6.10;4.80;;;;;;;;;;5044058;28;20084;-83
2021/03/11 08:20:43;;;;;;;6.38;4.82;;;;;;;;;;4952228;28;20049;-83
2021/03/11 08:23:15;;;;;;;4.95;3.88;;;;;;;;;;4908425;29;20047;-83
2021/03/11 08:25:50;;;;;;;5.43;3.08;;;;;;;;;;4909196;29;20046;-83
2021/03/11 08:28:24;;;;;;;4.60;3.20;;;;;;;;;;4905615;29;20044;-83
2021/03/11 08:31:11;;;;;;;4.30;3.30;;;;;;;;;;4908723;29;20071;-83
2021/03/11 08:33:52;;;;;;;6.05;3.92;;;;;;;;;;4909509;29;20112;-84
2021/03/11 08:36:36;;;;;;;5.60;3.08;;;;;;;;;;4911218;29;20044;-83
2021/03/11 08:39:07;;;;;;;4.55;3.53;;;;;;;;;;4911230;29;20040;-83
2021/03/11 08:41:33;;;;;;;6.95;3.28;;;;;;;;;;4893411;29;20056;-82
2021/03/11 08:44:08;;;;;;;5.40;3.50;;;;;;;;;;4912298;29;20037;-83
2021/03/11 08:47:18;;;;;;;4.65;3.53;;;;;;;;;;4910004;29;20063;-84
2021/03/11 08:50:22;;;;;;;6.53;3.50;;;;;;;;;;4914015;29;20064;-83
2021/03/11 08:52:57;;;;;;;5.55;3.58;;;;;;;;;;4899779;29;20037;-83
2021/03/11 08:55:32;;;;;;;4.78;3.65;;;;;;;;;;4913875;29;20040;-83
2021/03/11 08:57:58;;;;;;;5.03;3.33;;;;;;;;;;4964340;29;20047;-83
2021/03/11 09:01:10;;;;;;;7.13;4.15;;;;;;;;;;4984191;28;20434;-83
2021/03/11 09:03:36;;;;;;;5.90;3.75;;;;;;;;;;5050118;28;20030;-83
2021/03/11 09:06:13;;;;;;;6.78;4.22;;;;;;;;;;5049990;28;20064;-83
2021/03/11 09:08:55;;;;;;;4.28;3.55;;;;;;;;;;5050980;28;20036;-82
2021/03/11 09:12:25;;;;;;;5.50;3.17;;;;;;;;;;5036547;28;20017;-83
2021/03/11 09:15:03;;;;;;;5.05;3.50;;;;;;;;;;5033824;28;20076;-83
2021/03/11 09:17:33;;;;;;;5.00;3.38;;;;;;;;;;5051141;28;20028;-83
2021/03/11 09:20:25;;;;;;;4.97;3.47;;;;;;;;;;5031854;28;20056;-83
2021/03/11 09:23:17;;;;;;;3.58;3.00;;;;;;;;;;5031680;28;20033;-85
2021/03/11 09:25:51;;;;;;;5.40;3.65;;;;;;;;;;5048977;28;20033;-84
2021/03/11 09:28:39;;;;;;;6.18;3.10;;;;;;;;;;5033674;28;20042;-84
2021/03/11 09:31:19;;;;;;;4.75;3.42;;;;;;;;;;5051422;28;20029;-83
2021/03/11 09:33:50;;;;;;;4.75;3.05;;;;;;;;;;5049993;28;20033;-82
2021/03/11 09:36:36;;;;;;;4.55;2.95;;;;;;;;;;5001307;28;20093;-84
2021/03/11 09:39:16;;;;;;;4.18;3.05;;;;;;;;;;5037465;28;20079;-84
2021/03/11 09:41:51;;;;;;;6.53;2.88;;;;;;;;;;5025833;28;20045;-84
2021/03/11 09:44:31;;;;;;;5.32;3.58;;;;;;;;;;5049511;28;20033;-82
2021/03/11 09:47:01;;;;;;;6.65;3.60;;;;;;;;;;5049312;28;20041;-83
2021/03/11 09:49:52;;;;;;;5.03;3.50;;;;;;;;;;5044578;28;20041;-83
2021/03/11 09:52:28;;;;;;;6.15;3.92;;;;;;;;;;5030842;28;20033;-83
2021/03/11 09:54:59;;;;;;;5.95;4.18;;;;;;;;;;5026521;28;20041;-82
2021/03/11 09:57:31;;;;;;;5.45;4.18;;;;;;;;;;5015217;28;20029;-84
2021/03/11 09:59:58;;;;;;;7.68;4.53;;;;;;;;;;5045495;28;20048;-83
2021/03/11 10:02:23;;;;;;;7.65;4.20;;;;;;;;;;5006911;28;20025;-82
2021/03/11 10:04:55;;;;;;;5.25;4.05;;;;;;;;;;5029376;28;20068;-84
2021/03/11 10:07:31;;;;;;;5.93;3.50;;;;;;;;;;5016012;28;20060;-83
2021/03/11 10:10:16;;;;;;;5.88;3.47;;;;;;;;;;5028404;28;20038;-82
2021/03/11 10:12:46;;;;;;;4.72;3.55;;;;;;;;;;5014202;28;20024;-83
2021/03/11 10:15:14;;;;;;;6.20;3.40;;;;;;;;;;5024970;28;20083;-83
2021/03/11 10:17:44;;;;;;;6.40;4.10;;;;;;;;;;5014214;28;20129;-83
2021/03/11 10:20:29;;;;;;;5.32;3.53;;;;;;;;;;5048921;28;20051;-83
2021/03/11 10:23:20;;;;;;;7.30;3.20;;;;;;;;;;5047782;28;20032;-83
2021/03/11 10:26:07;;;;;;;6.78;3.58;;;;;;;;;;5033710;28;20010;-84
2021/03/11 10:29:12;;;;;;;5.50;3.65;;;;;;;;;;5019115;28;20038;-84
2021/03/11 10:31:42;;;;;;;4.03;3.00;;;;;;;;;;5048420;28;20036;-83
2021/03/11 10:34:27;;;;;;;4.25;2.63;;;;;;;;;;5050177;28;20035;-84
2021/03/11 10:37:07;;;;;;;3.53;2.70;;;;;;;;;;5044048;28;20119;-83
2021/03/11 10:40:07;;;;;;;8.73;3.00;;;;;;;;;;5015335;28;20168;-84
2021/03/11 10:43:21;;;;;;;6.10;3.13;;;;;;;;;;4968851;29;20353;-83
2021/03/11 10:45:46;;;;;;;4.22;3.15;;;;;;;;;;4968046;28;20050;-82
2021/03/11 10:48:33;;;;;;;5.75;3.42;;;;;;;;;;4967015;29;20039;-82
2021/03/11 10:51:22;;;;;;;6.25;3.42;;;;;;;;;;4955787;29;20039;-84
2021/03/11 10:54:04;;;;;;;3.75;2.83;;;;;;;;;;4953236;29;20047;-83
2021/03/11 10:57:05;;;;;;;6.57;3.13;;;;;;;;;;4970344;29;20027;-84
2021/03/11 10:59:46;;;;;;;6.78;3.35;;;;;;;;;;4970610;29;20050;-83
2021/03/11 11:02:32;;;;;;;5.57;3.20;;;;;;;;;;4955019;29;20090;-82
2021/03/11 11:05:19;;;;;;;5.55;2.72;;;;;;;;;;4971999;29;20088;-84
2021/03/11 11:07:48;;;;;;;4.93;3.10;;;;;;;;;;4950534;29;20031;-84
2021/03/11 11:10:27;;;;;;;4.97;3.20;;;;;;;;;;4950803;29;20036;-83
2021/03/11 11:13:10;;;;;;;6.07;3.28;;;;;;;;;;4939877;29;20038;-83
2021/03/11 11:15:42;;;;;;;4.72;2.90;;;;;;;;;;4948692;29;20125;-84
2021/03/11 11:18:15;;;;;;;6.07;3.23;;;;;;;;;;4989217;28;20039;-84
2021/03/11 11:20:47;;;;;;;5.50;3.30;;;;;;;;;;5049059;28;20021;-84
2021/03/11 11:23:44;;;;;;;4.13;3.30;;;;;;;;;;5048759;28;20028;-84
2021/03/11 11:26:25;;;;;;;5.72;3.38;;;;;;;;;;5047232;28;20037;-84
2021/03/11 11:29:07;;;;;;;5.95;3.55;;;;;;;;;;5048234;28;20033;-84
2021/03/11 11:31:55;;;;;;;6.00;3.83;;;;;;;;;;5048215;28;20059;-83
2021/03/11 11:34:38;;;;;;;8.38;4.00;;;;;;;;;;5036635;28;20273;-84
2021/03/11 11:37:22;;;;;;;7.20;3.83;;;;;;;;;;5031396;28;20037;-85
2021/03/11 11:39:52;;;;;;;6.57;3.95;;;;;;;;;;5001134;28;20045;-84
2021/03/11 11:42:19;;;;;;;5.80;4.20;;;;;;;;;;5000841;28;20034;-84
2021/03/11 11:45:17;;;;;;;5.32;4.13;;;;;;;;;;5017392;28;20090;-84
2021/03/11 11:51:48;;;;;;;5.43;4.22;;;;;;;;;;5050883;28;20064;-83
2021/03/11 11:54:30;;;;;;;6.82;4.50;;;;;;;;;;4964883;28;20050;-83
2021/03/11 11:57:34;;;;;;;7.03;4.60;;;;;;;;;;5023371;28;20046;-84
2021/03/11 11:59:59;;;;;;;5.25;4.43;;;;;;;;;;4999204;28;20033;-81
2021/03/11 12:02:25;;;;;;;9.85;4.80;;;;;;;;;;5000767;28;20036;-83
2021/03/11 12:04:54;;;;;;;8.70;4.53;;;;;;;;;;5016154;28;20424;-83
2021/03/11 12:07:21;;;;;;;10.10;5.32;;;;;;;;;;5012077;28;20062;-83
2021/03/11 12:09:46;;;;;;;9.82;5.25;;;;;;;;;;5003976;28;20042;-82
2021/03/11 12:12:12;;;;;;;7.72;5.25;;;;;;;;;;5015601;28;20045;-81
2021/03/11 12:14:38;;;;;;;12.55;4.85;;;;;;;;;;5000935;28;20412;-81
2021/03/11 12:17:05;;;;;;;6.78;4.78;;;;;;;;;;4983422;28;20399;-82
2021/03/11 12:19:30;;;;;;;10.85;5.53;;;;;;;;;;4999580;28;20069;-83
2021/03/11 12:21:57;;;;;;;8.90;5.00;;;;;;;;;;5014463;28;20708;-82
2021/03/11 12:24:24;;;;;;;6.40;4.80;;;;;;;;;;5016683;28;20095;-82
2021/03/11 12:26:49;;;;;;;6.28;4.70;;;;;;;;;;5016960;28;20105;-82
2021/03/11 12:29:15;;;;;;;6.70;4.65;;;;;;;;;;5002727;28;20068;-83
2021/03/11 12:31:43;;;;;;;8.23;5.47;;;;;;;;;;5002716;28;20037;-82
2021/03/11 12:34:09;;;;;;;6.82;5.20;;;;;;;;;;4988299;28;20048;-83
2021/03/11 12:36:36;;;;;;;6.70;5.10;;;;;;;;;;4972565;28;20029;-82
2021/03/11 12:39:05;;;;;;;9.45;5.10;;;;;;;;;;5002513;28;20037;-83
2021/03/11 12:41:32;;;;;;;6.93;4.93;;;;;;;;;;5002469;28;20076;-83
2021/03/11 12:44:07;;;;;;;10.27;4.93;;;;;;;;;;5009954;28;20034;-82
2021/03/11 12:46:32;;;;;;;7.22;5.18;;;;;;;;;;5001129;28;20559;-83
2021/03/11 12:48:58;;;;;;;10.80;5.03;;;;;;;;;;4999223;28;20109;-82
2021/03/11 12:51:24;;;;;;;9.07;4.97;;;;;;;;;;5030425;28;20048;-82
2021/03/11 12:53:49;;;;;;;8.30;4.50;;;;;;;;;;5021329;28;20037;-82
2021/03/11 12:56:15;;;;;;;6.80;4.28;;;;;;;;;;4988645;28;20560;-82
2021/03/11 12:58:41;;;;;;;6.47;4.10;;;;;;;;;;5038949;28;20029;-81
2021/03/11 13:01:09;;;;;;;8.15;4.03;;;;;;;;;;5022177;28;20109;-82
2021/03/11 13:03:35;;;;;;;6.70;3.70;;;;;;;;;;5022947;28;20057;-82
2021/03/11 13:06:02;;;;;;;6.70;4.57;;;;;;;;;;5022477;28;20029;-83
2021/03/11 13:08:28;;;;;;;6.28;4.25;;;;;;;;;;5038656;28;20408;-83
2021/03/11 13:10:55;;;;;;;6.22;4.35;;;;;;;;;;5042277;28;20040;-82
2021/03/11 13:13:25;;;;;;;9.93;5.07;;;;;;;;;;5014358;28;20049;-82
2021/03/11 13:15:54;;;;;;;;;;;;;;;;;;5022798;28;20026;-82
2021/03/11 13:18:22;;;;;;;8.38;5.00;;;;;;;;;;5039647;28;19916;-83
2021/03/11 13:20:53;;;;;;;7.30;4.85;;;;;;;;;;5021348;28;20045;-82
2021/03/11 13:23:21;;;;;;;7.47;5.20;;;;;;;;;;5020841;28;20040;-83
2021/03/11 13:25:49;;;;;;;8.10;4.53;;;;;;;;;;5039119;28;20048;-82
2021/03/11 13:28:16;;;;;;;8.10;5.70;;;;;;;;;;5038250;28;20491;-82
2021/03/11 13:30:45;;;;;;;8.65;5.25;;;;;;;;;;5022752;28;20037;-83
2021/03/11 13:33:11;;;;;;;10.13;5.25;;;;;;;;;;5021639;28;20430;-82
2021/03/11 13:35:37;;;;;;;7.97;4.47;;;;;;;;;;5039018;28;20551;-83
2021/03/11 13:38:06;;;;;;;7.40;4.60;;;;;;;;;;5038878;28;20033;-82
2021/03/11 13:40:33;;;;;;;6.70;3.90;;;;;;;;;;5020526;28;20037;-82
2021/03/11 13:43:01;;;;;;;7.97;4.10;;;;;;;;;;5036542;28;20041;-82
2021/03/11 13:45:30;;;;;;;5.88;4.25;;;;;;;;;;5037493;28;20950;-82
2021/03/11 13:47:57;;;;;;;6.53;4.60;;;;;;;;;;5037156;28;20099;-83
2021/03/11 13:50:40;;;;;;;6.93;4.88;;;;;;;;;;5022453;28;20034;-82
2021/03/11 13:53:05;;;;;;;6.63;5.30;;;;;;;;;;5022817;28;20029;-83
2021/03/11 13:55:32;;;;;;;7.63;4.78;;;;;;;;;;5039314;28;20033;-82
2021/03/11 13:57:59;;;;;;;9.68;4.97;;;;;;;;;;5022368;28;20487;-82
2021/03/11 14:00:28;;;;;;;6.55;5.28;;;;;;;;;;5023323;28;20095;-83
2021/03/11 14:02:54;;;;;;;9.40;5.45;;;;;;;;;;5041224;28;20454;-82
2021/03/11 14:05:20;;;;;;;9.82;5.97;;;;;;;;;;5039664;28;20033;-82
2021/03/11 14:07:47;;;;;;;8.98;5.40;;;;;;;;;;5023300;28;20021;-82
2021/03/11 14:10:13;;;;;;;8.60;5.40;;;;;;;;;;5021921;28;20108;-83
2021/03/11 14:12:41;;;;;;;6.68;5.25;;;;;;;;;;4989348;28;20029;-83
2021/03/11 14:15:13;;;;;;;8.77;5.82;;;;;;;;;;5005691;28;20033;-83
2021/03/11 14:17:40;;;;;;;7.57;5.60;;;;;;;;;;5022872;28;20029;-82
2021/03/11 14:20:09;;;;;;;8.88;5.32;;;;;;;;;;5037578;28;20041;-82
2021/03/11 14:22:39;;;;;;;9.23;5.28;;;;;;;;;;5023699;28;20029;-83
2021/03/11 14:25:05;;;;;;;5.75;5.03;;;;;;;;;;5005302;28;20053;-82
2021/03/11 14:27:31;;;;;;;8.20;5.15;;;;;;;;;;5004362;28;20088;-82
2021/03/11 14:30:03;;;;;;;9.45;4.88;;;;;;;;;;5038232;28;20088;-82
2021/03/11 14:32:30;;;;;;;5.70;4.03;;;;;;;;;;5021774;28;20116;-83
2021/03/11 14:34:56;;;;;;;6.20;4.47;;;;;;;;;;5038042;28;20400;-82
2021/03/11 14:37:22;;;;;;;7.10;4.50;;;;;;;;;;5020724;28;20112;-83
2021/03/11 14:39:48;;;;;;;5.55;4.28;;;;;;;;;;5005136;28;20069;-81
2021/03/11 14:42:14;;;;;;;6.03;3.85;;;;;;;;;;5022028;28;20108;-83
2021/03/11 14:44:41;;;;;;;6.10;3.85;;;;;;;;;;5038614;28;20396;-82
2021/03/11 14:47:08;;;;;;;7.03;3.75;;;;;;;;;;5018914;28;20053;-83
2021/03/11 14:49:33;;;;;;;7.45;4.10;;;;;;;;;;5021160;28;20407;-81
2021/03/11 14:52:02;;;;;;;5.07;3.50;;;;;;;;;;5003533;28;20021;-82
2021/03/11 14:54:28;;;;;;;7.15;4.38;;;;;;;;;;5037569;28;20057;-82
2021/03/11 14:56:55;;;;;;;4.55;3.38;;;;;;;;;;5037291;28;20029;-81
2021/03/11 14:59:22;;;;;;;5.00;3.45;;;;;;;;;;5002485;28;20515;-82
2021/03/11 15:01:50;;;;;;;4.10;3.45;;;;;;;;;;5019368;28;20041;-83
2021/03/11 15:04:17;;;;;;;4.90;3.20;;;;;;;;;;5003333;28;20042;-83
2021/03/11 15:06:43;;;;;;;5.97;3.90;;;;;;;;;;5036910;28;20029;-81
2021/03/11 15:09:10;;;;;;;3.63;3.03;;;;;;;;;;5019486;28;20064;-82
2021/03/11 15:11:37;;;;;;;6.90;3.35;;;;;;;;;;5019034;28;20056;-82
2021/03/11 15:14:04;;;;;;;4.35;3.30;;;;;;;;;;5002453;28;20036;-83
2021/03/11 15:16:30;;;;;;;4.97;3.08;;;;;;;;;;5021546;28;20032;-83
2021/03/11 15:18:55;;;;;;;7.18;3.30;;;;;;;;;;5025241;28;20460;-83
2021/03/11 15:21:24;;;;;;;6.47;3.42;;;;;;;;;;5009400;28;20026;-82
2021/03/11 15:23:51;;;;;;;5.60;2.95;;;;;;;;;;4992774;28;20046;-82
2021/03/11 15:26:18;;;;;;;5.38;3.47;;;;;;;;;;4987849;28;20041;-82
2021/03/11 15:28:49;;;;;;;4.30;3.28;;;;;;;;;;5034174;28;20033;-82
2021/03/11 15:31:17;;;;;;;3.53;2.78;;;;;;;;;;5028715;28;20033;-83
2021/03/11 15:33:46;;;;;;;5.50;2.90;;;;;;;;;;5017388;28;20101;-82
2021/03/11 15:36:13;;;;;;;3.38;2.53;;;;;;;;;;5034552;28;20522;-83
2021/03/11 15:38:43;;;;;;;4.50;2.75;;;;;;;;;;5019804;28;20045;-82
2021/03/11 15:41:14;;;;;;;6.03;2.70;;;;;;;;;;5019148;28;20464;-83
2021/03/11 15:43:42;;;;;;;3.28;2.10;;;;;;;;;;5028953;28;20033;-83
2021/03/11 15:46:09;;;;;;;3.05;2.10;;;;;;;;;;5031737;28;20098;-83
2021/03/11 15:48:35;;;;;;;4.38;2.40;;;;;;;;;;5048131;28;20424;-82
2021/03/11 15:51:02;;;;;;;4.00;2.35;;;;;;;;;;5014447;28;20018;-82
2021/03/11 15:53:33;;;;;;;4.18;3.00;;;;;;;;;;5036744;28;20100;-82
2021/03/11 15:56:02;;;;;;;5.30;2.58;;;;;;;;;;5038042;28;20028;-83
2021/03/11 15:58:28;;;;;;;5.25;2.50;;;;;;;;;;5017217;28;20576;-81
2021/03/11 16:00:59;;;;;;;4.70;2.42;;;;;;;;;;5039821;28;20030;-81
2021/03/11 16:03:26;;;;;;;4.38;2.78;;;;;;;;;;5040185;28;20022;-82
2021/03/11 16:05:54;;;;;;;5.07;2.22;;;;;;;;;;5038438;28;20067;-83
2021/03/11 16:08:23;;;;;;;3.90;2.72;;;;;;;;;;5031731;28;20100;-82
2021/03/11 16:10:54;;;;;;;6.22;2.63;;;;;;;;;;5017751;28;20029;-82
2021/03/11 16:13:20;;;;;;;4.78;2.70;;;;;;;;;;5020102;28;20518;-82
2021/03/11 16:15:47;;;;;;;4.65;3.08;;;;;;;;;;5037073;28;20033;-82
2021/03/11 16:18:12;;;;;;;7.00;2.85;;;;;;;;;;5023381;28;20029;-82
2021/03/11 16:20:39;;;;;;;3.55;3.20;;;;;;;;;;5039098;28;20041;-83
2021/03/11 16:23:06;;;;;;;4.70;3.17;;;;;;;;;;5019200;28;20510;-82
2021/03/11 16:25:34;;;;;;;4.63;3.65;;;;;;;;;;5042137;28;20021;-82
2021/03/11 16:28:01;;;;;;;5.85;3.58;;;;;;;;;;5015872;28;20048;-82
2021/03/11 16:30:27;;;;;;;4.75;3.53;;;;;;;;;;5038666;28;20479;-82
2021/03/11 16:32:54;;;;;;;7.13;3.85;;;;;;;;;;5021503;28;20087;-83
2021/03/11 16:35:21;;;;;;;5.18;3.97;;;;;;;;;;5036366;28;20021;-82
2021/03/11 16:37:46;;;;;;;8.00;4.63;;;;;;;;;;5025261;28;20399;-83
2021/03/11 16:40:15;;;;;;;4.97;4.13;;;;;;;;;;5044093;28;20048;-83
2021/03/11 16:42:41;;;;;;;5.50;5.00;;;;;;;;;;5041440;28;20025;-83
2021/03/11 16:45:11;;;;;;;5.53;4.95;;;;;;;;;;5041263;28;20018;-83
2021/03/11 16:47:38;;;;;;;9.63;5.35;;;;;;;;;;5039859;28;20393;-82
2021/03/11 16:50:06;;;;;;;8.77;5.43;;;;;;;;;;5001598;28;20025;-83
2021/03/11 16:52:35;;;;;;;5.88;4.97;;;;;;;;;;5031074;28;20025;-82
2021/03/11 16:55:11;;;;;;;5.80;4.82;;;;;;;;;;5025365;28;20048;-83
2021/03/11 16:57:41;;;;;;;6.55;5.60;;;;;;;;;;5033608;28;20055;-82
2021/03/11 17:00:13;;;;;;;6.90;5.30;;;;;;;;;;5026403;28;20084;-83
2021/03/11 17:02:41;;;;;;;7.55;5.13;;;;;;;;;;5033287;28;20030;-82
2021/03/11 17:05:08;;;;;;;9.13;5.28;;;;;;;;;;5041885;28;20021;-82
2021/03/11 17:07:36;;;;;;;6.85;5.57;;;;;;;;;;5018605;28;20093;-81
2021/03/11 17:10:10;;;;;;;10.35;5.72;;;;;;;;;;5022522;28;20033;-82
2021/03/11 17:12:39;;;;;;;9.27;5.90;;;;;;;;;;5037593;28;20032;-82
2021/03/11 17:15:15;;;;;;;10.43;5.85;;;;;;;;;;4993323;28;20036;-81
2021/03/11 17:17:41;;;;;;;7.25;5.63;;;;;;;;;;5033395;28;20017;-81
2021/03/11 17:20:08;;;;;;;9.65;6.15;;;;;;;;;;4992210;28;20033;-80
2021/03/11 17:22:34;;;;;;;8.40;5.35;;;;;;;;;;5014529;28;20414;-82
2021/03/11 17:25:00;;;;;;;9.00;6.10;;;;;;;;;;5027967;28;20060;-81
2021/03/11 17:27:29;;;;;;;9.05;6.22;;;;;;;;;;5025083;28;20045;-81
2021/03/11 17:29:58;;;;;;;8.63;6.22;;;;;;;;;;5033978;28;20067;-83